sensor_id;sensor_type;location;lat;lon;timestamp;P1;durP1;ratioP1;P2;durP2;ratioP2
66575;SDS011;53428;47.686;16.584;2023-03-04T00:03:36;57.03;;;27.77;;
66575;SDS011;53428;47.686;16.584;2023-03-04T00:08:36;63.53;;;26.38;;
66575;SDS011;53428;47.686;16.584;2023-03-04T00:13:35;62.55;;;26.60;;
66575;SDS011;53428;47.686;16.584;2023-03-04T00:18:35;58.38;;;26.77;;
66575;SDS011;53428;47.686;16.584;2023-03-04T00:23:34;52.65;;;24.73;;
66575;SDS011;53428;47.686;16.584;2023-03-04T00:28:34;48.67;;;25.75;;
66575;SDS011;53428;47.686;16.584;2023-03-04T00:33:33;58.38;;;25.65;;
66575;SDS011;53428;47.686;16.584;2023-03-04T00:38:33;62.63;;;27.73;;
66575;SDS011;53428;47.686;16.584;2023-03-04T00:43:32;63.40;;;28.58;;
66575;SDS011;53428;47.686;16.584;2023-03-04T00:48:31;64.15;;;28.83;;
66575;SDS011;53428;47.686;16.584;2023-03-04T00:53:31;57.33;;;27.02;;
66575;SDS011;53428;47.686;16.584;2023-03-04T00:58:30;60.25;;;27.30;;
66575;SDS011;53428;47.686;16.584;2023-03-04T01:03:29;60.28;;;27.70;;
66575;SDS011;53428;47.686;16.584;2023-03-04T01:08:30;62.03;;;25.10;;
66575;SDS011;53428;47.686;16.584;2023-03-04T01:13:29;69.85;;;26.17;;
66575;SDS011;53428;47.686;16.584;2023-03-04T01:18:29;60.80;;;26.98;;
66575;SDS011;53428;47.686;16.584;2023-03-04T01:23:29;72.32;;;30.30;;
66575;SDS011;53428;47.686;16.584;2023-03-04T01:28:28;61.63;;;27.25;;
66575;SDS011;53428;47.686;16.584;2023-03-04T01:33:28;63.95;;;27.30;;
66575;SDS011;53428;47.686;16.584;2023-03-04T01:38:27;64.05;;;29.38;;
66575;SDS011;53428;47.686;16.584;2023-03-04T01:43:28;56.15;;;26.73;;
66575;SDS011;53428;47.686;16.584;2023-03-04T01:48:37;60.30;;;28.65;;
66575;SDS011;53428;47.686;16.584;2023-03-04T01:53:37;70.95;;;29.23;;
66575;SDS011;53428;47.686;16.584;2023-03-04T01:58:36;64.15;;;27.15;;
66575;SDS011;53428;47.686;16.584;2023-03-04T02:03:36;64.82;;;27.25;;
66575;SDS011;53428;47.686;16.584;2023-03-04T02:08:36;68.97;;;30.00;;
66575;SDS011;53428;47.686;16.584;2023-03-04T02:13:36;58.55;;;25.00;;
66575;SDS011;53428;47.686;16.584;2023-03-04T02:18:35;67.30;;;29.08;;
66575;SDS011;53428;47.686;16.584;2023-03-04T02:29:02;65.88;;;27.73;;
66575;SDS011;53428;47.686;16.584;2023-03-04T02:34:04;61.40;;;25.58;;
66575;SDS011;53428;47.686;16.584;2023-03-04T02:39:27;57.63;;;25.80;;
66575;SDS011;53428;47.686;16.584;2023-03-04T02:44:31;58.13;;;26.15;;
66575;SDS011;53428;47.686;16.584;2023-03-04T02:49:35;55.10;;;23.98;;
66575;SDS011;53428;47.686;16.584;2023-03-04T02:54:36;59.83;;;27.42;;
66575;SDS011;53428;47.686;16.584;2023-03-04T02:59:37;60.03;;;25.52;;
66575;SDS011;53428;47.686;16.584;2023-03-04T03:04:38;59.50;;;25.88;;
66575;SDS011;53428;47.686;16.584;2023-03-04T03:09:39;62.47;;;27.02;;
66575;SDS011;53428;47.686;16.584;2023-03-04T03:14:38;63.55;;;26.95;;
66575;SDS011;53428;47.686;16.584;2023-03-04T03:19:38;62.78;;;25.65;;
66575;SDS011;53428;47.686;16.584;2023-03-04T03:24:37;57.80;;;24.30;;
66575;SDS011;53428;47.686;16.584;2023-03-04T03:29:37;67.18;;;26.08;;
66575;SDS011;53428;47.686;16.584;2023-03-04T03:34:36;73.32;;;27.27;;
66575;SDS011;53428;47.686;16.584;2023-03-04T03:39:36;65.65;;;26.45;;
66575;SDS011;53428;47.686;16.584;2023-03-04T03:44:35;57.70;;;22.92;;
66575;SDS011;53428;47.686;16.584;2023-03-04T03:49:35;56.90;;;27.65;;
66575;SDS011;53428;47.686;16.584;2023-03-04T03:54:34;61.20;;;25.90;;
66575;SDS011;53428;47.686;16.584;2023-03-04T03:59:34;64.00;;;25.85;;
66575;SDS011;53428;47.686;16.584;2023-03-04T04:04:33;72.43;;;27.92;;
66575;SDS011;53428;47.686;16.584;2023-03-04T04:09:33;70.15;;;29.05;;
66575;SDS011;53428;47.686;16.584;2023-03-04T04:14:33;56.92;;;23.67;;
66575;SDS011;53428;47.686;16.584;2023-03-04T04:19:32;71.20;;;29.02;;
66575;SDS011;53428;47.686;16.584;2023-03-04T04:24:32;62.50;;;26.58;;
66575;SDS011;53428;47.686;16.584;2023-03-04T04:29:32;60.17;;;25.88;;
66575;SDS011;53428;47.686;16.584;2023-03-04T04:34:31;54.25;;;23.92;;
66575;SDS011;53428;47.686;16.584;2023-03-04T04:39:31;73.13;;;25.45;;
66575;SDS011;53428;47.686;16.584;2023-03-04T04:44:31;70.22;;;26.58;;
66575;SDS011;53428;47.686;16.584;2023-03-04T04:49:30;81.00;;;28.77;;
66575;SDS011;53428;47.686;16.584;2023-03-04T04:54:30;61.78;;;24.75;;
66575;SDS011;53428;47.686;16.584;2023-03-04T04:59:29;69.10;;;26.83;;
66575;SDS011;53428;47.686;16.584;2023-03-04T05:04:28;67.90;;;29.77;;
66575;SDS011;53428;47.686;16.584;2023-03-04T05:09:28;84.75;;;28.83;;
66575;SDS011;53428;47.686;16.584;2023-03-04T05:14:27;64.53;;;29.42;;
66575;SDS011;53428;47.686;16.584;2023-03-04T05:19:27;50.22;;;25.35;;
66575;SDS011;53428;47.686;16.584;2023-03-04T05:24:26;60.63;;;28.20;;
66575;SDS011;53428;47.686;16.584;2023-03-04T05:29:26;66.30;;;27.80;;
66575;SDS011;53428;47.686;16.584;2023-03-04T05:34:25;70.85;;;29.83;;
66575;SDS011;53428;47.686;16.584;2023-03-04T05:39:24;72.50;;;28.67;;
66575;SDS011;53428;47.686;16.584;2023-03-04T05:44:24;70.97;;;29.05;;
66575;SDS011;53428;47.686;16.584;2023-03-04T05:49:23;77.70;;;31.27;;
66575;SDS011;53428;47.686;16.584;2023-03-04T05:54:23;77.78;;;30.90;;
66575;SDS011;53428;47.686;16.584;2023-03-04T05:59:22;105.70;;;41.92;;
66575;SDS011;53428;47.686;16.584;2023-03-04T06:04:21;240.00;;;96.18;;
66575;SDS011;53428;47.686;16.584;2023-03-04T06:09:21;268.10;;;101.80;;
66575;SDS011;53428;47.686;16.584;2023-03-04T06:14:20;246.10;;;100.88;;
66575;SDS011;53428;47.686;16.584;2023-03-04T06:19:20;201.38;;;87.57;;
66575;SDS011;53428;47.686;16.584;2023-03-04T06:24:19;86.70;;;36.42;;
66575;SDS011;53428;47.686;16.584;2023-03-04T06:29:18;73.30;;;31.30;;
66575;SDS011;53428;47.686;16.584;2023-03-04T06:34:18;77.25;;;33.22;;
66575;SDS011;53428;47.686;16.584;2023-03-04T06:39:17;82.53;;;31.10;;
66575;SDS011;53428;47.686;16.584;2023-03-04T06:44:17;100.18;;;39.50;;
66575;SDS011;53428;47.686;16.584;2023-03-04T06:49:18;82.50;;;34.40;;
66575;SDS011;53428;47.686;16.584;2023-03-04T06:54:17;86.50;;;34.28;;
66575;SDS011;53428;47.686;16.584;2023-03-04T06:59:17;89.68;;;38.20;;
66575;SDS011;53428;47.686;16.584;2023-03-04T07:04:16;77.68;;;31.77;;
66575;SDS011;53428;47.686;16.584;2023-03-04T07:09:16;91.72;;;37.28;;
66575;SDS011;53428;47.686;16.584;2023-03-04T07:14:16;78.35;;;33.30;;
66575;SDS011;53428;47.686;16.584;2023-03-04T07:19:15;74.25;;;35.30;;
66575;SDS011;53428;47.686;16.584;2023-03-04T07:24:14;90.15;;;36.42;;
66575;SDS011;53428;47.686;16.584;2023-03-04T07:29:14;91.82;;;41.80;;
66575;SDS011;53428;47.686;16.584;2023-03-04T07:34:14;93.25;;;40.53;;
66575;SDS011;53428;47.686;16.584;2023-03-04T07:39:13;89.53;;;35.78;;
66575;SDS011;53428;47.686;16.584;2023-03-04T07:44:13;86.93;;;42.08;;
66575;SDS011;53428;47.686;16.584;2023-03-04T07:49:12;91.25;;;42.38;;
66575;SDS011;53428;47.686;16.584;2023-03-04T07:54:11;86.07;;;38.38;;
66575;SDS011;53428;47.686;16.584;2023-03-04T07:59:11;86.60;;;37.30;;
66575;SDS011;53428;47.686;16.584;2023-03-04T08:04:10;85.35;;;39.00;;
66575;SDS011;53428;47.686;16.584;2023-03-04T08:09:09;80.15;;;34.83;;
66575;SDS011;53428;47.686;16.584;2023-03-04T08:14:11;69.03;;;31.75;;
66575;SDS011;53428;47.686;16.584;2023-03-04T08:19:11;62.75;;;30.17;;
66575;SDS011;53428;47.686;16.584;2023-03-04T08:24:11;66.85;;;34.70;;
66575;SDS011;53428;47.686;16.584;2023-03-04T08:29:12;66.30;;;30.75;;
66575;SDS011;53428;47.686;16.584;2023-03-04T08:34:14;77.13;;;32.50;;
66575;SDS011;53428;47.686;16.584;2023-03-04T08:39:16;60.45;;;30.10;;
66575;SDS011;53428;47.686;16.584;2023-03-04T08:44:16;69.28;;;35.20;;
66575;SDS011;53428;47.686;16.584;2023-03-04T08:49:15;68.18;;;34.90;;
66575;SDS011;53428;47.686;16.584;2023-03-04T08:54:15;66.72;;;31.60;;
66575;SDS011;53428;47.686;16.584;2023-03-04T08:59:14;64.68;;;31.45;;
66575;SDS011;53428;47.686;16.584;2023-03-04T09:04:14;84.65;;;33.00;;
66575;SDS011;53428;47.686;16.584;2023-03-04T09:09:13;62.20;;;28.55;;
66575;SDS011;53428;47.686;16.584;2023-03-04T09:14:12;68.50;;;31.77;;
66575;SDS011;53428;47.686;16.584;2023-03-04T09:19:12;57.42;;;29.05;;
66575;SDS011;53428;47.686;16.584;2023-03-04T09:24:11;60.28;;;31.10;;
66575;SDS011;53428;47.686;16.584;2023-03-04T09:29:10;48.58;;;24.73;;
66575;SDS011;53428;47.686;16.584;2023-03-04T09:34:09;52.00;;;26.33;;
66575;SDS011;53428;47.686;16.584;2023-03-04T09:39:09;50.13;;;23.55;;
66575;SDS011;53428;47.686;16.584;2023-03-04T09:44:51;60.67;;;28.02;;
66575;SDS011;53428;47.686;16.584;2023-03-04T09:49:34;61.08;;;26.40;;
66575;SDS011;53428;47.686;16.584;2023-03-04T10:05:20;57.20;;;28.95;;
66575;SDS011;53428;47.686;16.584;2023-03-04T10:10:24;61.10;;;31.98;;
66575;SDS011;53428;47.686;16.584;2023-03-04T10:15:35;57.17;;;30.42;;
66575;SDS011;53428;47.686;16.584;2023-03-04T10:20:43;61.28;;;32.25;;
66575;SDS011;53428;47.686;16.584;2023-03-04T10:25:49;52.30;;;28.00;;
66575;SDS011;53428;47.686;16.584;2023-03-04T10:41:20;46.30;;;27.83;;
66575;SDS011;53428;47.686;16.584;2023-03-04T10:46:22;53.97;;;28.77;;
66575;SDS011;53428;47.686;16.584;2023-03-04T10:51:28;46.28;;;26.58;;
66575;SDS011;53428;47.686;16.584;2023-03-04T10:56:31;64.75;;;27.92;;
66575;SDS011;53428;47.686;16.584;2023-03-04T11:01:32;47.75;;;27.95;;
66575;SDS011;53428;47.686;16.584;2023-03-04T11:06:31;57.30;;;27.15;;
66575;SDS011;53428;47.686;16.584;2023-03-04T11:11:37;53.72;;;26.75;;
66575;SDS011;53428;47.686;16.584;2023-03-04T11:16:40;48.55;;;27.63;;
66575;SDS011;53428;47.686;16.584;2023-03-04T11:21:52;51.05;;;24.48;;
66575;SDS011;53428;47.686;16.584;2023-03-04T11:27:02;28.85;;;12.77;;
66575;SDS011;53428;47.686;16.584;2023-03-04T11:32:13;21.48;;;9.77;;
66575;SDS011;53428;47.686;16.584;2023-03-04T11:37:23;19.65;;;10.30;;
66575;SDS011;53428;47.686;16.584;2023-03-04T11:42:46;18.55;;;10.20;;
66575;SDS011;53428;47.686;16.584;2023-03-04T12:09:23;19.42;;;8.60;;
66575;SDS011;53428;47.686;16.584;2023-03-04T12:14:30;17.60;;;8.75;;
66575;SDS011;53428;47.686;16.584;2023-03-04T12:25:35;25.42;;;8.63;;
66575;SDS011;53428;47.686;16.584;2023-03-04T12:37:00;25.83;;;9.10;;
66575;SDS011;53428;47.686;16.584;2023-03-04T12:46:42;16.90;;;8.65;;
66575;SDS011;53428;47.686;16.584;2023-03-04T12:51:52;20.02;;;9.15;;
66575;SDS011;53428;47.686;16.584;2023-03-04T12:57:00;14.50;;;7.68;;
66575;SDS011;53428;47.686;16.584;2023-03-04T13:12:49;19.15;;;9.40;;
66575;SDS011;53428;47.686;16.584;2023-03-04T13:17:57;20.45;;;8.93;;
66575;SDS011;53428;47.686;16.584;2023-03-04T13:23:22;17.45;;;8.27;;
66575;SDS011;53428;47.686;16.584;2023-03-04T13:28:29;15.45;;;8.73;;
66575;SDS011;53428;47.686;16.584;2023-03-04T13:38:33;14.60;;;9.02;;
66575;SDS011;53428;47.686;16.584;2023-03-04T13:43:41;17.85;;;7.60;;
66575;SDS011;53428;47.686;16.584;2023-03-04T14:04:18;16.35;;;8.00;;
66575;SDS011;53428;47.686;16.584;2023-03-04T14:09:29;19.80;;;7.95;;
66575;SDS011;53428;47.686;16.584;2023-03-04T14:14:41;27.80;;;11.68;;
66575;SDS011;53428;47.686;16.584;2023-03-04T14:19:51;15.75;;;9.57;;
66575;SDS011;53428;47.686;16.584;2023-03-04T14:25:02;20.85;;;11.60;;
66575;SDS011;53428;47.686;16.584;2023-03-04T14:30:19;26.40;;;12.88;;
66575;SDS011;53428;47.686;16.584;2023-03-04T14:35:24;27.67;;;14.25;;
66575;SDS011;53428;47.686;16.584;2023-03-04T14:40:30;23.17;;;12.82;;
66575;SDS011;53428;47.686;16.584;2023-03-04T14:45:38;27.33;;;13.02;;
66575;SDS011;53428;47.686;16.584;2023-03-04T14:50:46;17.88;;;11.40;;
66575;SDS011;53428;47.686;16.584;2023-03-04T14:56:06;23.65;;;12.82;;
66575;SDS011;53428;47.686;16.584;2023-03-04T15:01:13;23.45;;;12.25;;
66575;SDS011;53428;47.686;16.584;2023-03-04T15:06:22;22.65;;;11.60;;
66575;SDS011;53428;47.686;16.584;2023-03-04T15:11:25;24.15;;;12.68;;
66575;SDS011;53428;47.686;16.584;2023-03-04T15:16:28;23.58;;;11.93;;
66575;SDS011;53428;47.686;16.584;2023-03-04T15:21:47;31.27;;;14.07;;
66575;SDS011;53428;47.686;16.584;2023-03-04T15:26:47;30.30;;;14.18;;
66575;SDS011;53428;47.686;16.584;2023-03-04T15:31:49;28.75;;;13.65;;
66575;SDS011;53428;47.686;16.584;2023-03-04T15:36:49;27.17;;;14.73;;
66575;SDS011;53428;47.686;16.584;2023-03-04T15:41:49;34.75;;;14.63;;
66575;SDS011;53428;47.686;16.584;2023-03-04T15:46:48;28.38;;;13.35;;
66575;SDS011;53428;47.686;16.584;2023-03-04T15:51:48;26.13;;;12.73;;
66575;SDS011;53428;47.686;16.584;2023-03-04T15:56:48;32.60;;;15.13;;
66575;SDS011;53428;47.686;16.584;2023-03-04T16:01:47;29.77;;;13.82;;
66575;SDS011;53428;47.686;16.584;2023-03-04T16:06:47;32.55;;;15.52;;
66575;SDS011;53428;47.686;16.584;2023-03-04T16:11:48;33.03;;;16.40;;
66575;SDS011;53428;47.686;16.584;2023-03-04T16:16:48;24.88;;;13.90;;
66575;SDS011;53428;47.686;16.584;2023-03-04T16:21:48;30.10;;;15.00;;
66575;SDS011;53428;47.686;16.584;2023-03-04T16:26:47;31.95;;;15.18;;
66575;SDS011;53428;47.686;16.584;2023-03-04T16:31:47;28.30;;;14.60;;
66575;SDS011;53428;47.686;16.584;2023-03-04T16:36:46;31.85;;;15.45;;
66575;SDS011;53428;47.686;16.584;2023-03-04T16:41:46;27.17;;;14.00;;
66575;SDS011;53428;47.686;16.584;2023-03-04T16:46:45;27.55;;;13.68;;
66575;SDS011;53428;47.686;16.584;2023-03-04T16:51:46;28.13;;;13.65;;
66575;SDS011;53428;47.686;16.584;2023-03-04T16:56:47;44.38;;;20.83;;
66575;SDS011;53428;47.686;16.584;2023-03-04T17:01:47;35.55;;;18.30;;
66575;SDS011;53428;47.686;16.584;2023-03-04T17:06:47;44.05;;;17.45;;
66575;SDS011;53428;47.686;16.584;2023-03-04T17:11:47;41.17;;;21.80;;
66575;SDS011;53428;47.686;16.584;2023-03-04T17:16:46;37.75;;;18.33;;
66575;SDS011;53428;47.686;16.584;2023-03-04T17:21:46;40.63;;;18.92;;
66575;SDS011;53428;47.686;16.584;2023-03-04T17:26:45;37.60;;;19.65;;
66575;SDS011;53428;47.686;16.584;2023-03-04T17:31:45;37.50;;;18.40;;
66575;SDS011;53428;47.686;16.584;2023-03-04T17:36:45;36.38;;;18.63;;
66575;SDS011;53428;47.686;16.584;2023-03-04T17:41:45;42.08;;;19.83;;
66575;SDS011;53428;47.686;16.584;2023-03-04T17:46:49;36.13;;;18.02;;
66575;SDS011;53428;47.686;16.584;2023-03-04T17:51:50;34.38;;;17.45;;
66575;SDS011;53428;47.686;16.584;2023-03-04T17:56:52;33.10;;;17.67;;
66575;SDS011;53428;47.686;16.584;2023-03-04T18:01:51;29.92;;;16.20;;
66575;SDS011;53428;47.686;16.584;2023-03-04T18:06:51;26.45;;;14.50;;
66575;SDS011;53428;47.686;16.584;2023-03-04T18:11:50;31.55;;;15.45;;
66575;SDS011;53428;47.686;16.584;2023-03-04T18:16:50;24.92;;;14.73;;
66575;SDS011;53428;47.686;16.584;2023-03-04T18:21:49;27.05;;;15.40;;
66575;SDS011;53428;47.686;16.584;2023-03-04T18:26:50;26.63;;;13.15;;
66575;SDS011;53428;47.686;16.584;2023-03-04T18:31:50;28.02;;;14.73;;
66575;SDS011;53428;47.686;16.584;2023-03-04T18:36:49;24.08;;;12.63;;
66575;SDS011;53428;47.686;16.584;2023-03-04T18:41:50;26.02;;;13.00;;
66575;SDS011;53428;47.686;16.584;2023-03-04T18:46:51;28.55;;;13.75;;
66575;SDS011;53428;47.686;16.584;2023-03-04T18:51:54;23.15;;;11.90;;
66575;SDS011;53428;47.686;16.584;2023-03-04T18:56:54;23.80;;;12.50;;
66575;SDS011;53428;47.686;16.584;2023-03-04T19:01:58;24.17;;;11.45;;
66575;SDS011;53428;47.686;16.584;2023-03-04T19:12:01;24.23;;;12.43;;
66575;SDS011;53428;47.686;16.584;2023-03-04T19:17:01;23.65;;;11.88;;
66575;SDS011;53428;47.686;16.584;2023-03-04T19:22:01;17.95;;;9.30;;
66575;SDS011;53428;47.686;16.584;2023-03-04T19:27:00;21.63;;;10.55;;
66575;SDS011;53428;47.686;16.584;2023-03-04T19:32:00;22.13;;;10.25;;
66575;SDS011;53428;47.686;16.584;2023-03-04T19:37:00;20.92;;;9.93;;
66575;SDS011;53428;47.686;16.584;2023-03-04T19:42:00;20.33;;;10.05;;
66575;SDS011;53428;47.686;16.584;2023-03-04T19:47:00;21.63;;;10.10;;
66575;SDS011;53428;47.686;16.584;2023-03-04T19:52:00;19.05;;;10.48;;
66575;SDS011;53428;47.686;16.584;2023-03-04T19:57:00;27.40;;;13.10;;
66575;SDS011;53428;47.686;16.584;2023-03-04T20:01:59;24.10;;;10.48;;
66575;SDS011;53428;47.686;16.584;2023-03-04T20:07:02;19.92;;;10.20;;
66575;SDS011;53428;47.686;16.584;2023-03-04T20:12:02;21.65;;;11.55;;
66575;SDS011;53428;47.686;16.584;2023-03-04T20:17:04;22.23;;;10.27;;
66575;SDS011;53428;47.686;16.584;2023-03-04T20:22:05;23.05;;;10.77;;
66575;SDS011;53428;47.686;16.584;2023-03-04T20:27:06;23.33;;;11.48;;
66575;SDS011;53428;47.686;16.584;2023-03-04T20:32:06;22.40;;;10.45;;
66575;SDS011;53428;47.686;16.584;2023-03-04T20:37:05;24.60;;;11.73;;
66575;SDS011;53428;47.686;16.584;2023-03-04T20:42:05;19.92;;;11.18;;
66575;SDS011;53428;47.686;16.584;2023-03-04T20:47:05;22.23;;;12.38;;
66575;SDS011;53428;47.686;16.584;2023-03-04T20:52:04;21.77;;;11.05;;
66575;SDS011;53428;47.686;16.584;2023-03-04T20:57:04;22.00;;;11.77;;
66575;SDS011;53428;47.686;16.584;2023-03-04T21:02:06;18.92;;;9.77;;
66575;SDS011;53428;47.686;16.584;2023-03-04T21:07:07;28.50;;;11.23;;
66575;SDS011;53428;47.686;16.584;2023-03-04T21:12:07;23.83;;;10.90;;
66575;SDS011;53428;47.686;16.584;2023-03-04T21:17:08;28.58;;;12.75;;
66575;SDS011;53428;47.686;16.584;2023-03-04T21:22:09;27.60;;;11.90;;
66575;SDS011;53428;47.686;16.584;2023-03-04T21:27:12;35.08;;;16.40;;
66575;SDS011;53428;47.686;16.584;2023-03-04T21:32:16;23.35;;;11.60;;
66575;SDS011;53428;47.686;16.584;2023-03-04T21:37:22;27.83;;;13.30;;
66575;SDS011;53428;47.686;16.584;2023-03-04T21:42:23;29.30;;;13.50;;
66575;SDS011;53428;47.686;16.584;2023-03-04T21:47:22;28.23;;;13.43;;
66575;SDS011;53428;47.686;16.584;2023-03-04T21:52:21;23.73;;;14.27;;
66575;SDS011;53428;47.686;16.584;2023-03-04T21:57:21;27.80;;;12.10;;
66575;SDS011;53428;47.686;16.584;2023-03-04T22:02:21;21.63;;;12.30;;
66575;SDS011;53428;47.686;16.584;2023-03-04T22:07:20;25.25;;;12.43;;
66575;SDS011;53428;47.686;16.584;2023-03-04T22:12:20;24.63;;;11.43;;
66575;SDS011;53428;47.686;16.584;2023-03-04T22:17:19;22.73;;;11.48;;
66575;SDS011;53428;47.686;16.584;2023-03-04T22:22:18;20.83;;;11.05;;
66575;SDS011;53428;47.686;16.584;2023-03-04T22:27:18;23.98;;;12.52;;
66575;SDS011;53428;47.686;16.584;2023-03-04T22:32:18;25.52;;;10.95;;
66575;SDS011;53428;47.686;16.584;2023-03-04T22:37:17;19.38;;;9.77;;
66575;SDS011;53428;47.686;16.584;2023-03-04T22:42:17;21.75;;;11.05;;
66575;SDS011;53428;47.686;16.584;2023-03-04T22:47:16;18.90;;;10.00;;
66575;SDS011;53428;47.686;16.584;2023-03-04T22:52:15;28.52;;;10.60;;
66575;SDS011;53428;47.686;16.584;2023-03-04T22:57:14;22.02;;;10.77;;
66575;SDS011;53428;47.686;16.584;2023-03-04T23:02:14;21.23;;;9.15;;
66575;SDS011;53428;47.686;16.584;2023-03-04T23:07:14;27.23;;;11.75;;
66575;SDS011;53428;47.686;16.584;2023-03-04T23:12:13;23.15;;;12.38;;
66575;SDS011;53428;47.686;16.584;2023-03-04T23:17:12;28.20;;;11.57;;
66575;SDS011;53428;47.686;16.584;2023-03-04T23:22:12;25.58;;;13.15;;
66575;SDS011;53428;47.686;16.584;2023-03-04T23:27:11;23.63;;;11.85;;
66575;SDS011;53428;47.686;16.584;2023-03-04T23:32:10;18.55;;;10.48;;
66575;SDS011;53428;47.686;16.584;2023-03-04T23:37:09;23.92;;;10.93;;
66575;SDS011;53428;47.686;16.584;2023-03-04T23:42:09;21.90;;;10.45;;
66575;SDS011;53428;47.686;16.584;2023-03-04T23:47:09;17.80;;;9.60;;
66575;SDS011;53428;47.686;16.584;2023-03-04T23:52:08;16.73;;;9.15;;
66575;SDS011;53428;47.686;16.584;2023-03-04T23:57:07;24.50;;;9.13;;
